Aiea, Hawaii
Current Conditions -  °F | °C
As of 8:53 AM on Tuesday 21 Oct 2014 (Local Time) from PHNL Reporting Station
Scattered Clouds Scattered Clouds  
Wind Chill: 82°   Ceiling: Unl
Heat Index: 86°   Visibility: 10mi
Dew Point: 71°   Wind: 5mph
Humidity: 69%   Direction: 110°ESE
Pressure: 30.02"   Gusts: NA
Location:  21.38°N, 157.93°W
Report Text: PHNL 211853Z 11004KT 10SM FEW028 SCT065 SCT230 28/22 A3002 RMK AO2 SLP165 T02780217 $
Loading
Personal Weather Stations






























Interactive Weather Map New forecast layout! Learn more

10-Day Weather Forecast

Advertisements
Track Severe Weather on mobile